Glen Easton, West Virginia
Current Conditions -  °F | °C
As of 5:53 PM on Wednesday 26 Nov 2014 (Local Time) from KHLG Reporting Station
Haze Haze  
Wind Chill: 27°   Ceiling: 300
Heat Index: 32°   Visibility: 2.5mi
Dew Point: 30°   Wind: 5mph
Humidity: 92%   Direction: 60°ENE
Pressure: 30.01"   Gusts: NA
Location:  39.83°N, 80.65°W
Report Text: KHLG 262253Z 06004KT 2 1/2SM BR OVC003 00/M01 A3001 RMK AO2 SLP176 T00001011
Loading
Personal Weather Stations






























Interactive Weather Map New forecast layout! Learn more

10-Day Weather Forecast

Advertisements
Track Severe Weather on mobile